Time;durP1;ratioP1;P1;durP2;ratioP2;P2;SDS_P1;SDS_P2;PMS_P1;PMS_P2;Temp;Humidity;BMP_temperature;BMP_pressure;BME280_temperature;BME280_humidity;BME280_pressure;Samples;Min_cycle;Max_cycle;Signal;HPM_P1;HPM_P2
2023/12/27 05:00:24;;;;;;;1.27;0.77;;;2.90;99.90;;;;;;5843826;23;21732;-74
2023/12/27 05:02:50;;;;;;;0.55;0.55;;;2.90;99.90;;;;;;4943901;29;20209;-73
2023/12/27 05:05:17;;;;;;;3.63;1.17;;;2.90;99.90;;;;;;4941361;29;20576;-74
2023/12/27 05:07:44;;;;;;;0.80;0.80;;;2.90;99.90;;;;;;4943662;28;20213;-74
2023/12/27 05:10:11;;;;;;;2.05;0.40;;;2.90;99.90;;;;;;4944094;28;20859;-73
2023/12/27 05:12:37;;;;;;;1.67;0.57;;;2.90;99.90;;;;;;4931920;29;20291;-74
2023/12/27 05:15:05;;;;;;;0.57;0.57;;;2.90;99.90;;;;;;4923154;29;20292;-74
2023/12/27 05:17:33;;;;;;;7.95;0.90;;;3.00;99.90;;;;;;4926133;29;20210;-73
2023/12/27 05:20:00;;;;;;;0.70;0.70;;;3.00;99.90;;;;;;4934092;29;20217;-73
2023/12/27 05:22:27;;;;;;;1.95;0.77;;;3.00;99.90;;;;;;4930078;29;20601;-73
2023/12/27 05:24:54;;;;;;;0.95;0.95;;;3.00;99.90;;;;;;4933007;29;20214;-74
2023/12/27 05:27:21;;;;;;;3.60;0.50;;;3.10;99.90;;;;;;4932672;29;20210;-73
2023/12/27 05:29:48;;;;;;;2.05;0.70;;;3.10;99.90;;;;;;4927402;29;20234;-73
2023/12/27 05:32:14;;;;;;;2.25;0.90;;;3.10;99.90;;;;;;4933772;29;20230;-73
2023/12/27 05:34:42;;;;;;;2.80;1.23;;;3.10;99.90;;;;;;4930253;29;20206;-73
2023/12/27 05:37:09;;;;;;;6.43;0.77;;;3.10;99.90;;;;;;4923326;29;20578;-73
2023/12/27 05:39:36;;;;;;;3.65;0.63;;;3.20;99.90;;;;;;4931713;29;20257;-74
2023/12/27 05:42:02;;;;;;;4.90;0.60;;;3.20;99.90;;;;;;4931065;29;20242;-73
2023/12/27 05:44:29;;;;;;;0.65;0.65;;;3.20;99.90;;;;;;4927426;29;20217;-73
2023/12/27 05:46:57;;;;;;;4.97;0.65;;;3.30;99.90;;;;;;4926262;29;20221;-73
2023/12/27 05:49:23;;;;;;;7.93;1.23;;;3.30;99.90;;;;;;4926396;29;20235;-73
2023/12/27 05:51:52;;;;;;;9.25;0.90;;;3.30;99.90;;;;;;4929702;29;20234;-73
2023/12/27 05:54:19;;;;;;;2.15;0.55;;;3.30;99.90;;;;;;4928886;29;20219;-74
2023/12/27 05:56:45;;;;;;;1.55;1.45;;;3.30;99.90;;;;;;4932329;29;20212;-73
2023/12/27 05:59:12;;;;;;;2.20;1.17;;;3.30;99.90;;;;;;4933605;29;20696;-74
2023/12/27 06:01:45;;;;;;;2.35;1.45;;;3.40;99.90;;;;;;4931405;29;20235;-73
2023/12/27 06:04:12;;;;;;;13.50;4.40;;;3.40;99.90;;;;;;4927985;29;20226;-73
2023/12/27 06:06:39;;;;;;;8.02;1.52;;;3.30;99.90;;;;;;4929715;29;20203;-74
2023/12/27 06:09:07;;;;;;;2.97;1.23;;;3.40;99.90;;;;;;4933037;29;20207;-73
2023/12/27 06:11:34;;;;;;;1.08;0.98;;;3.40;99.90;;;;;;4933844;29;20570;-74
2023/12/27 06:14:00;;;;;;;1.17;0.82;;;3.30;99.90;;;;;;4931925;29;20224;-74
2023/12/27 06:16:27;;;;;;;1.75;1.30;;;3.30;99.90;;;;;;4932474;29;20210;-74
2023/12/27 06:18:54;;;;;;;2.75;0.90;;;3.30;99.90;;;;;;4932919;29;20206;-73
2023/12/27 06:21:21;;;;;;;0.60;0.60;;;3.30;99.90;;;;;;4931211;29;20258;-74
2023/12/27 06:23:48;;;;;;;3.67;2.58;;;3.30;99.90;;;;;;4932400;29;20213;-73
2023/12/27 06:26:15;;;;;;;1.15;1.15;;;3.20;99.90;;;;;;4938693;29;20206;-73
2023/12/27 06:28:43;;;;;;;2.10;1.15;;;3.20;99.90;;;;;;4937382;29;20663;-73
2023/12/27 06:31:10;;;;;;;2.15;1.80;;;3.10;99.90;;;;;;4932178;29;20226;-73
2023/12/27 06:33:36;;;;;;;1.08;1.08;;;3.10;99.90;;;;;;4932833;29;20240;-73
2023/12/27 06:36:06;;;;;;;2.42;1.00;;;3.10;99.90;;;;;;4928052;29;20217;-73
2023/12/27 06:38:32;;;;;;;7.18;1.67;;;3.00;99.90;;;;;;4925241;29;20966;-72
2023/12/27 06:41:00;;;;;;;5.53;1.73;;;3.00;99.90;;;;;;4930872;29;20248;-74
2023/12/27 06:43:28;;;;;;;1.10;1.05;;;3.00;99.90;;;;;;4930157;29;20210;-75
2023/12/27 06:45:55;;;;;;;0.95;0.95;;;2.90;99.90;;;;;;4933699;29;20210;-73
2023/12/27 06:48:22;;;;;;;2.58;0.75;;;2.90;99.90;;;;;;4934197;29;20206;-73
2023/12/27 06:50:49;;;;;;;1.85;0.80;;;2.90;99.90;;;;;;4931024;29;20709;-74
2023/12/27 06:53:15;;;;;;;1.10;1.10;;;2.90;99.90;;;;;;4934004;29;20206;-73
2023/12/27 06:55:42;;;;;;;2.50;0.93;;;2.80;99.90;;;;;;4932503;29;20213;-73
2023/12/27 06:58:09;;;;;;;5.88;2.30;;;2.80;99.90;;;;;;4932238;29;20606;-74
2023/12/27 07:00:38;;;;;;;3.08;1.35;;;2.80;99.90;;;;;;4931568;29;20316;-72
2023/12/27 07:03:05;;;;;;;2.08;0.80;;;2.80;99.90;;;;;;4931695;29;20245;-73
2023/12/27 07:05:32;;;;;;;5.35;3.90;;;2.70;99.90;;;;;;4930849;29;20202;-73
2023/12/27 07:07:59;;;;;;;4.35;4.05;;;2.70;99.90;;;;;;4932610;29;20214;-73
2023/12/27 07:10:25;;;;;;;4.20;1.73;;;2.70;99.90;;;;;;4933233;29;20217;-74
2023/12/27 07:12:52;;;;;;;1.23;1.23;;;2.60;99.90;;;;;;4927393;29;20209;-73
2023/12/27 07:15:19;;;;;;;2.55;2.38;;;2.60;99.90;;;;;;4933461;29;20209;-73
2023/12/27 07:17:47;;;;;;;2.20;2.05;;;2.60;99.90;;;;;;4927430;29;20207;-74
2023/12/27 07:20:14;;;;;;;3.85;3.00;;;2.60;99.90;;;;;;4933444;29;20210;-74
2023/12/27 07:22:41;;;;;;;1.98;1.88;;;2.50;99.90;;;;;;4930963;29;20234;-73
2023/12/27 07:25:08;;;;;;;2.70;2.45;;;2.50;99.90;;;;;;4932570;29;20210;-74
2023/12/27 07:27:34;;;;;;;1.67;1.58;;;2.50;99.90;;;;;;4926825;29;20217;-73
2023/12/27 07:30:01;;;;;;;1.10;0.88;;;2.50;99.90;;;;;;4924496;29;20218;-73
2023/12/27 07:32:28;;;;;;;1.38;1.25;;;2.50;99.90;;;;;;4927385;29;20314;-74
2023/12/27 07:34:57;;;;;;;0.80;0.80;;;2.50;99.90;;;;;;4931955;29;20202;-74
2023/12/27 07:37:24;;;;;;;2.35;0.90;;;2.50;99.90;;;;;;4932782;29;20581;-75
2023/12/27 07:39:51;;;;;;;1.50;1.20;;;2.50;99.90;;;;;;4929754;29;20217;-74
2023/12/27 07:42:17;;;;;;;2.08;1.23;;;2.50;99.90;;;;;;4924586;29;20227;-74
2023/12/27 07:44:44;;;;;;;5.78;1.70;;;2.50;99.90;;;;;;4930135;29;20206;-74
2023/12/27 07:47:11;;;;;;;1.20;1.20;;;2.50;99.90;;;;;;4936298;29;20213;-74
2023/12/27 07:49:38;;;;;;;1.63;1.50;;;2.50;99.90;;;;;;4936740;29;20205;-73
2023/12/27 07:52:06;;;;;;;6.03;1.17;;;2.50;99.90;;;;;;4934128;29;20689;-74
2023/12/27 07:54:33;;;;;;;3.53;3.22;;;2.50;99.90;;;;;;4930353;29;20214;-75
2023/12/27 07:57:00;;;;;;;2.42;1.67;;;2.60;99.90;;;;;;4933920;29;20681;-75
2023/12/27 07:59:26;;;;;;;2.58;1.40;;;2.60;99.90;;;;;;4935905;29;20217;-74
2023/12/27 08:01:53;;;;;;;1.88;1.38;;;2.60;99.90;;;;;;4932399;29;20239;-74
2023/12/27 08:04:20;;;;;;;10.10;5.90;;;2.60;99.90;;;;;;4926055;29;20210;-74
2023/12/27 08:06:48;;;;;;;3.08;2.78;;;2.60;99.90;;;;;;4935709;29;20210;-74
2023/12/27 08:09:18;;;;;;;7.35;3.78;;;2.60;99.90;;;;;;4934936;29;20228;-75
2023/12/27 08:11:44;;;;;;;3.85;1.83;;;2.60;99.90;;;;;;4932781;29;20229;-75
2023/12/27 08:14:11;;;;;;;3.60;0.98;;;2.70;99.90;;;;;;4935623;29;20230;-74
2023/12/27 08:16:38;;;;;;;4.22;3.55;;;2.70;99.90;;;;;;4936360;29;20578;-74
2023/12/27 08:19:04;;;;;;;4.57;2.95;;;2.70;99.90;;;;;;4935498;29;20212;-75
2023/12/27 08:21:31;;;;;;;4.97;1.95;;;2.70;99.90;;;;;;4935660;29;20235;-74
2023/12/27 08:23:58;;;;;;;4.10;2.58;;;2.70;99.90;;;;;;4933947;29;20202;-74
2023/12/27 08:26:26;;;;;;;4.25;3.00;;;2.80;99.90;;;;;;4934062;29;20613;-74
2023/12/27 08:28:52;;;;;;;7.10;5.20;;;2.80;99.90;;;;;;4933394;29;20213;-74
2023/12/27 08:31:19;;;;;;;9.38;6.97;;;2.80;99.90;;;;;;4935947;29;20233;-74
2023/12/27 08:33:48;;;;;;;18.08;3.70;;;2.80;99.90;;;;;;4934873;29;20257;-74
2023/12/27 08:36:15;;;;;;;16.17;7.35;;;2.90;99.90;;;;;;4933334;29;20214;-74
2023/12/27 08:38:42;;;;;;;17.80;8.60;;;2.90;99.90;;;;;;4934940;29;20205;-74
2023/12/27 08:41:09;;;;;;;48.55;22.58;;;2.90;99.90;;;;;;4934979;29;20688;-74
2023/12/27 08:43:37;;;;;;;44.05;22.00;;;2.90;99.90;;;;;;4933859;29;20233;-74
2023/12/27 08:46:08;;;;;;;12.65;7.68;;;2.90;99.90;;;;;;4934799;29;20305;-74
2023/12/27 08:48:35;;;;;;;2.60;2.45;;;2.90;99.90;;;;;;4932847;29;20692;-75
2023/12/27 08:51:02;;;;;;;5.90;2.03;;;2.90;99.90;;;;;;4934474;29;20564;-74
2023/12/27 08:53:29;;;;;;;5.07;2.70;;;3.00;99.90;;;;;;4935382;29;20625;-75
2023/12/27 08:55:56;;;;;;;7.10;3.75;;;3.00;99.90;;;;;;4933797;29;20237;-74
2023/12/27 08:58:23;;;;;;;15.45;6.50;;;3.00;99.90;;;;;;4933381;29;20209;-74
2023/12/27 09:00:51;;;;;;;10.77;7.57;;;3.00;99.90;;;;;;4930079;29;20244;-73
2023/12/27 09:03:17;;;;;;;10.77;2.53;;;3.10;99.90;;;;;;4931624;29;20234;-74
2023/12/27 09:05:45;;;;;;;22.70;7.63;;;3.10;99.90;;;;;;4930138;29;20203;-75
2023/12/27 09:08:11;;;;;;;7.35;4.50;;;3.10;99.90;;;;;;4932136;29;20219;-74
2023/12/27 09:10:38;;;;;;;6.85;1.50;;;3.10;99.90;;;;;;4935094;29;20234;-74
2023/12/27 09:13:05;;;;;;;3.90;3.53;;;3.10;99.90;;;;;;4933289;29;20210;-74
2023/12/27 09:15:32;;;;;;;2.35;2.22;;;;;;;;;;4934753;29;20586;-71
2023/12/27 09:18:00;;;;;;;5.78;2.72;;;3.30;99.90;;;;;;4935476;29;20211;-73
2023/12/27 09:20:27;;;;;;;5.28;3.88;;;3.30;99.90;;;;;;4934186;29;20209;-74
2023/12/27 09:22:53;;;;;;;13.20;4.82;;;3.30;99.90;;;;;;4928552;29;20227;-76
2023/12/27 09:25:20;;;;;;;15.25;7.53;;;3.30;99.90;;;;;;4931571;29;20213;-75
2023/12/27 09:27:48;;;;;;;9.18;7.75;;;3.30;99.90;;;;;;4935570;29;20210;-74
2023/12/27 09:30:15;;;;;;;6.40;5.80;;;3.40;99.90;;;;;;4935101;29;20214;-75
2023/12/27 09:32:42;;;;;;;9.85;6.28;;;3.40;99.90;;;;;;4935353;29;20206;-75
2023/12/27 09:35:11;;;;;;;6.18;3.70;;;3.40;99.90;;;;;;4935322;29;20211;-75
2023/12/27 09:37:37;;;;;;;13.07;9.43;;;3.40;99.90;;;;;;4933733;29;20211;-74
2023/12/27 09:40:05;;;;;;;8.63;6.47;;;3.40;99.90;;;;;;4933975;29;20206;-74
2023/12/27 09:42:33;;;;;;;12.30;3.10;;;3.40;99.90;;;;;;4934773;29;20318;-74
2023/12/27 09:45:01;;;;;;;3.90;3.03;;;3.50;99.90;;;;;;4934088;29;20204;-73
2023/12/27 09:47:29;;;;;;;9.05;4.30;;;3.50;99.90;;;;;;4936112;29;20207;-73
2023/12/27 09:49:59;;;;;;;3.08;2.30;;;3.50;99.90;;;;;;4933418;29;20738;-74
2023/12/27 09:52:30;;;;;;;2.38;2.17;;;3.60;99.90;;;;;;4933057;29;20694;-74
2023/12/27 09:54:56;;;;;;;2.72;1.30;;;3.60;99.90;;;;;;4933722;29;20206;-73
2023/12/27 09:57:25;;;;;;;4.03;3.05;;;3.70;99.90;;;;;;4931834;29;20209;-75
2023/12/27 09:59:54;;;;;;;3.25;2.40;;;3.80;99.90;;;;;;4932423;29;20211;-75
2023/12/27 10:02:23;;;;;;;4.68;3.92;;;3.80;99.90;;;;;;4935355;29;20239;-74
2023/12/27 10:04:58;;;;;;;2.30;2.20;;;3.90;99.90;;;;;;4936919;29;20255;-75
2023/12/27 10:07:28;;;;;;;1.00;1.00;;;3.90;99.90;;;;;;4931682;29;20214;-72
2023/12/27 10:09:56;;;;;;;1.30;1.30;;;4.00;99.90;;;;;;4923835;29;20218;-75
2023/12/27 10:12:23;;;;;;;2.30;2.13;;;4.00;99.90;;;;;;4929603;29;20224;-73
2023/12/27 10:14:51;;;;;;;7.82;2.80;;;4.00;99.90;;;;;;4934587;29;20562;-74
2023/12/27 10:17:19;;;;;;;10.63;1.90;;;4.00;99.90;;;;;;4934997;29;20221;-73
2023/12/27 10:19:46;;;;;;;0.52;0.52;;;4.00;99.90;;;;;;4932013;29;20210;-74
2023/12/27 10:22:13;;;;;;;2.05;1.98;;;4.00;99.90;;;;;;4932675;29;20237;-74
2023/12/27 10:24:41;;;;;;;2.00;1.67;;;4.10;99.90;;;;;;4930548;29;20664;-74
2023/12/27 10:27:10;;;;;;;2.70;1.27;;;4.10;99.90;;;;;;4932098;29;20543;-73
2023/12/27 10:29:38;;;;;;;4.47;1.80;;;4.10;99.90;;;;;;4929028;29;20229;-73
2023/12/27 10:32:06;;;;;;;2.28;2.13;;;4.10;99.90;;;;;;4929395;29;20282;-76
2023/12/27 10:34:33;;;;;;;5.38;1.30;;;4.20;99.90;;;;;;4931135;29;20579;-73
2023/12/27 10:37:01;;;;;;;2.05;0.90;;;4.20;99.90;;;;;;4931888;29;20689;-73
2023/12/27 10:39:28;;;;;;;7.45;1.65;;;4.20;99.90;;;;;;4928098;29;20625;-74
2023/12/27 10:41:56;;;;;;;0.40;0.40;;;4.20;99.90;;;;;;4930330;29;20223;-74
2023/12/27 10:44:23;;;;;;;4.95;1.52;;;4.20;99.90;;;;;;4932717;29;20658;-73
2023/12/27 10:46:50;;;;;;;1.25;1.25;;;4.30;99.90;;;;;;4930753;29;20214;-73
2023/12/27 10:49:18;;;;;;;3.83;2.42;;;4.30;99.90;;;;;;4934237;29;20211;-72
2023/12/27 10:51:48;;;;;;;8.80;6.70;;;4.30;99.90;;;;;;4932558;29;20318;-73
2023/12/27 10:54:15;;;;;;;1.63;1.52;;;4.40;99.90;;;;;;4928299;29;20645;-73
2023/12/27 10:56:42;;;;;;;3.92;1.60;;;4.50;99.90;;;;;;4931566;29;20222;-74
2023/12/27 10:59:10;;;;;;;16.77;1.70;;;4.40;99.90;;;;;;4933759;29;20290;-73
2023/12/27 11:01:39;;;;;;;2.65;0.80;;;4.40;99.90;;;;;;4932580;29;20231;-75
2023/12/27 11:04:08;;;;;;;5.15;1.45;;;4.40;99.90;;;;;;4933029;29;20238;-74
2023/12/27 11:06:38;;;;;;;1.63;1.52;;;4.40;99.90;;;;;;4930212;29;21413;-73
2023/12/27 11:09:07;;;;;;;3.30;1.10;;;4.50;99.90;;;;;;4934991;29;20240;-74
2023/12/27 11:11:37;;;;;;;4.30;1.40;;;4.50;99.90;;;;;;4935146;29;20228;-74
2023/12/27 11:14:05;;;;;;;5.70;2.13;;;4.60;99.90;;;;;;4930380;29;20268;-75
2023/12/27 11:16:35;;;;;;;6.20;2.13;;;4.60;99.90;;;;;;4935113;29;20216;-74
2023/12/27 11:19:05;;;;;;;1.20;1.00;;;4.70;99.90;;;;;;4931928;29;20217;-74
2023/12/27 11:21:32;;;;;;;8.90;1.00;;;4.70;99.90;;;;;;4931090;29;20290;-74
2023/12/27 11:23:59;;;;;;;4.93;1.92;;;4.70;99.90;;;;;;4935615;29;20260;-74
2023/12/27 11:26:26;;;;;;;3.35;1.13;;;4.60;99.90;;;;;;4934854;29;20711;-74
2023/12/27 11:28:53;;;;;;;1.60;1.00;;;4.70;99.90;;;;;;4934974;29;20217;-74
2023/12/27 11:31:20;;;;;;;1.52;1.42;;;4.70;99.90;;;;;;4936546;29;20224;-75
2023/12/27 11:33:49;;;;;;;1.27;1.20;;;4.80;99.90;;;;;;4935272;29;20224;-74
2023/12/27 11:36:17;;;;;;;1.27;1.27;;;4.80;99.90;;;;;;4932485;29;20216;-73
2023/12/27 11:38:46;;;;;;;0.52;0.52;;;4.80;99.90;;;;;;4934194;29;20588;-72
2023/12/27 11:41:12;;;;;;;2.00;1.75;;;4.80;99.90;;;;;;4932683;29;20237;-73
2023/12/27 11:43:52;;;;;;;1.58;1.48;;;4.80;99.90;;;;;;4936789;29;20228;-73
2023/12/27 11:46:25;;;;;;;1.58;1.55;;;4.80;99.90;;;;;;4932207;29;20296;-74
2023/12/27 11:48:54;;;;;;;1.35;1.25;;;4.80;99.90;;;;;;4935600;29;20238;-74
2023/12/27 11:51:29;;;;;;;3.70;1.25;;;4.90;99.90;;;;;;4934886;29;20600;-74
2023/12/27 11:53:56;;;;;;;1.63;1.60;;;4.80;99.90;;;;;;4933379;29;20464;-80
2023/12/27 11:56:23;;;;;;;2.42;1.80;;;4.90;99.90;;;;;;4935397;29;21009;-74
2023/12/27 11:58:50;;;;;;;3.25;1.48;;;4.90;99.90;;;;;;4936102;29;20256;-74
2023/12/27 12:01:28;;;;;;;1.58;1.48;;;4.90;99.90;;;;;;4937306;29;20239;-73
2023/12/27 12:04:17;;;;;;;1.35;1.30;;;4.90;99.90;;;;;;4931327;29;20706;-74
2023/12/27 12:07:17;;;;;;;1.08;0.75;;;4.90;99.90;;;;;;4908230;29;20307;-74
2023/12/27 12:09:46;;;;;;;0.80;0.80;;;4.90;99.90;;;;;;4920257;29;20219;-74
2023/12/27 12:12:16;;;;;;;1.27;1.17;;;4.90;99.90;;;;;;4935255;29;20282;-74
2023/12/27 12:14:44;;;;;;;1.25;1.05;;;5.00;99.90;;;;;;4934962;29;20223;-75
2023/12/27 12:17:11;;;;;;;0.90;0.90;;;5.00;99.90;;;;;;4935691;29;20213;-74
2023/12/27 12:19:40;;;;;;;5.43;1.08;;;5.00;99.90;;;;;;4934883;29;20293;-74
2023/12/27 12:22:07;;;;;;;5.28;0.88;;;5.00;99.90;;;;;;4932542;29;20233;-74
2023/12/27 12:24:33;;;;;;;4.57;1.25;;;5.00;99.90;;;;;;4937298;29;20233;-73
2023/12/27 12:27:02;;;;;;;1.98;1.88;;;5.00;99.90;;;;;;4939029;29;20296;-74
2023/12/27 12:29:29;;;;;;;1.02;0.88;;;5.10;99.90;;;;;;4939257;29;20207;-73
2023/12/27 12:31:56;;;;;;;3.60;1.02;;;5.10;99.90;;;;;;4934268;29;20227;-74
2023/12/27 12:34:23;;;;;;;3.83;1.15;;;5.10;99.90;;;;;;4934564;29;20216;-74
2023/12/27 12:36:51;;;;;;;1.63;1.52;;;5.10;99.90;;;;;;4936343;29;20572;-74
2023/12/27 12:39:19;;;;;;;4.43;1.42;;;5.10;99.90;;;;;;4934232;29;20209;-74
2023/12/27 12:41:47;;;;;;;1.52;1.42;;;5.10;99.90;;;;;;4931584;29;20233;-73
2023/12/27 12:44:14;;;;;;;1.48;0.90;;;5.10;99.90;;;;;;4936016;29;20234;-75
2023/12/27 12:46:41;;;;;;;1.65;1.02;;;5.10;99.90;;;;;;4928082;29;20224;-73
2023/12/27 12:49:10;;;;;;;1.50;0.85;;;5.10;99.90;;;;;;4936001;29;20215;-74
2023/12/27 12:51:37;;;;;;;2.40;1.33;;;5.10;99.90;;;;;;4934554;29;20729;-75
2023/12/27 12:54:07;;;;;;;0.68;0.68;;;5.10;99.90;;;;;;4933398;29;20216;-75
2023/12/27 12:56:34;;;;;;;7.10;1.40;;;5.20;99.90;;;;;;4932394;29;20706;-74
2023/12/27 12:59:01;;;;;;;1.23;1.23;;;5.20;99.90;;;;;;4934422;29;20212;-75
2023/12/27 13:01:28;;;;;;;3.13;1.83;;;5.20;99.90;;;;;;4932311;29;20235;-73
2023/12/27 13:03:57;;;;;;;18.98;1.17;;;5.20;99.90;;;;;;4930115;29;20232;-72
2023/12/27 13:06:24;;;;;;;4.40;2.40;;;5.30;99.90;;;;;;4927192;29;20232;-73
2023/12/27 13:08:52;;;;;;;3.55;2.15;;;5.30;99.90;;;;;;4935146;29;20236;-73
2023/12/27 13:11:23;;;;;;;2.45;2.22;;;5.30;99.90;;;;;;4935441;29;20232;-73
2023/12/27 13:13:49;;;;;;;1.98;1.23;;;5.30;99.90;;;;;;4936336;29;20466;-72
2023/12/27 13:16:16;;;;;;;2.00;1.20;;;5.40;99.90;;;;;;4929170;29;20218;-73
2023/12/27 13:18:43;;;;;;;12.40;2.42;;;5.40;99.90;;;;;;4934403;29;20209;-73
2023/12/27 13:21:11;;;;;;;5.47;1.35;;;5.40;99.90;;;;;;4935205;29;20320;-73
2023/12/27 13:23:38;;;;;;;1.35;1.35;;;5.40;99.90;;;;;;4932703;29;20226;-73
2023/12/27 13:26:06;;;;;;;1.85;1.73;;;5.50;99.90;;;;;;4936200;29;20241;-72
2023/12/27 13:28:34;;;;;;;0.95;0.95;;;5.50;99.90;;;;;;4935460;29;20295;-73
2023/12/27 13:31:02;;;;;;;1.25;1.15;;;5.50;99.90;;;;;;4934172;29;20230;-74
2023/12/27 13:33:29;;;;;;;0.50;0.50;;;5.60;99.90;;;;;;4935424;29;20212;-76
2023/12/27 13:35:56;;;;;;;0.82;0.80;;;5.60;99.90;;;;;;4936041;29;20369;-74
2023/12/27 13:38:22;;;;;;;1.88;1.20;;;5.60;99.90;;;;;;4931934;29;20688;-73
2023/12/27 13:40:49;;;;;;;1.48;1.38;;;5.60;99.90;;;;;;4934865;29;20244;-74
2023/12/27 13:43:16;;;;;;;3.50;1.08;;;5.60;99.90;;;;;;4934680;29;20224;-73
2023/12/27 13:45:45;;;;;;;1.25;1.25;;;5.60;99.90;;;;;;4937311;29;20273;-73
2023/12/27 13:48:11;;;;;;;3.22;0.88;;;5.60;99.90;;;;;;4935972;29;20245;-74
2023/12/27 13:50:38;;;;;;;3.53;1.35;;;5.60;99.90;;;;;;4933428;29;20232;-73
2023/12/27 13:53:05;;;;;;;5.30;0.68;;;5.60;99.90;;;;;;4936158;29;20223;-74
2023/12/27 13:55:32;;;;;;;3.03;0.52;;;5.60;99.90;;;;;;4935449;29;20674;-74
2023/12/27 13:57:59;;;;;;;4.32;2.00;;;5.60;99.90;;;;;;4935940;29;20295;-74
2023/12/27 14:00:26;;;;;;;3.85;0.90;;;5.60;99.90;;;;;;4931221;29;20577;-74
2023/12/27 14:02:54;;;;;;;0.70;0.70;;;5.60;99.90;;;;;;4935223;29;20216;-74
2023/12/27 14:05:21;;;;;;;1.95;0.90;;;5.60;99.90;;;;;;4932853;29;20284;-74
2023/12/27 14:07:48;;;;;;;3.53;1.50;;;5.60;99.90;;;;;;4935111;29;20209;-74
2023/12/27 14:10:15;;;;;;;1.58;1.52;;;5.60;99.90;;;;;;4934922;29;20687;-74
2023/12/27 14:12:43;;;;;;;1.92;1.08;;;5.60;99.90;;;;;;4932707;29;20209;-72
2023/12/27 14:15:10;;;;;;;0.63;0.63;;;5.60;99.90;;;;;;4934018;29;20303;-73
2023/12/27 14:17:40;;;;;;;0.65;0.63;;;5.60;99.90;;;;;;4932326;29;20599;-73
2023/12/27 14:20:12;;;;;;;6.18;2.78;;;5.60;99.90;;;;;;4934609;29;20213;-73
2023/12/27 14:22:41;;;;;;;1.60;1.02;;;5.70;99.90;;;;;;4932365;29;20218;-72
2023/12/27 14:25:09;;;;;;;2.75;1.10;;;5.70;99.90;;;;;;4932774;29;20255;-74
2023/12/27 14:27:36;;;;;;;2.28;1.13;;;5.60;99.90;;;;;;4932733;29;21867;-73
2023/12/27 14:30:04;;;;;;;1.10;0.70;;;5.70;99.90;;;;;;4932184;29;20221;-73
2023/12/27 14:32:31;;;;;;;1.50;0.68;;;5.70;99.90;;;;;;4926449;29;20328;-74
2023/12/27 14:35:00;;;;;;;4.10;0.82;;;5.70;99.90;;;;;;4926376;29;20213;-73
2023/12/27 14:37:30;;;;;;;10.13;1.77;;;5.70;99.90;;;;;;4933116;29;20576;-74
2023/12/27 14:39:56;;;;;;;3.13;1.20;;;5.70;99.90;;;;;;4931727;29;20247;-73
2023/12/27 14:42:23;;;;;;;1.15;0.98;;;5.70;99.90;;;;;;4931126;29;20663;-74
2023/12/27 14:44:50;;;;;;;1.95;0.80;;;5.70;99.90;;;;;;4925185;29;20236;-73
2023/12/27 14:47:18;;;;;;;2.58;1.15;;;5.70;99.90;;;;;;4933663;29;20216;-73
2023/12/27 14:49:45;;;;;;;4.75;1.15;;;5.70;99.90;;;;;;4931998;29;20257;-73
2023/12/27 14:52:11;;;;;;;5.03;1.15;;;5.70;99.90;;;;;;4931649;29;20234;-74
2023/12/27 14:54:40;;;;;;;0.80;0.80;;;5.70;99.90;;;;;;4933497;29;20205;-74
2023/12/27 14:57:06;;;;;;;0.68;0.68;;;5.80;99.90;;;;;;4934530;29;20213;-72
2023/12/27 14:59:34;;;;;;;5.75;1.00;;;5.80;99.90;;;;;;4935707;29;20218;-73
2023/12/27 15:02:00;;;;;;;4.68;0.93;;;5.80;99.90;;;;;;4930967;29;20244;-73
2023/12/27 15:04:29;;;;;;;1.25;1.05;;;5.80;99.90;;;;;;4932972;29;20229;-73
2023/12/27 15:06:55;;;;;;;5.65;1.05;;;5.70;99.90;;;;;;4929984;29;20293;-74
2023/12/27 15:09:23;;;;;;;10.20;1.08;;;5.70;99.90;;;;;;4929115;29;20217;-74
2023/12/27 15:11:51;;;;;;;1.20;1.20;;;5.70;99.90;;;;;;4932935;29;20283;-75
2023/12/27 15:14:18;;;;;;;6.10;0.85;;;5.60;99.90;;;;;;4937073;29;20565;-73
2023/12/27 15:16:45;;;;;;;1.85;1.50;;;5.60;99.90;;;;;;4937543;29;20222;-73
2023/12/27 15:19:12;;;;;;;1.23;1.13;;;5.60;99.90;;;;;;4937406;29;20213;-73
2023/12/27 15:21:39;;;;;;;0.52;0.52;;;5.60;99.90;;;;;;4935562;29;20243;-74
2023/12/27 15:24:06;;;;;;;4.13;1.55;;;5.50;99.90;;;;;;4936877;29;20226;-74
2023/12/27 15:26:33;;;;;;;1.45;1.40;;;5.50;99.90;;;;;;4934729;29;20343;-73
2023/12/27 15:29:01;;;;;;;3.60;1.67;;;5.60;99.90;;;;;;4936715;29;20213;-76
2023/12/27 15:31:28;;;;;;;1.00;1.00;;;5.60;99.90;;;;;;4932588;29;20244;-73
2023/12/27 15:33:56;;;;;;;3.40;1.27;;;5.60;99.90;;;;;;4930307;29;20214;-74
2023/12/27 15:36:24;;;;;;;0.95;0.95;;;5.50;99.90;;;;;;4928978;29;20688;-73
2023/12/27 15:38:53;;;;;;;1.63;1.42;;;5.50;99.90;;;;;;4930345;29;20255;-73
2023/12/27 15:41:21;;;;;;;2.92;2.63;;;5.50;99.90;;;;;;4929339;29;20668;-73
2023/12/27 15:43:49;;;;;;;2.55;1.85;;;5.50;99.90;;;;;;4935009;29;20215;-73
2023/12/27 15:46:17;;;;;;;0.85;0.85;;;5.50;99.90;;;;;;4930540;29;20207;-73
2023/12/27 15:48:44;;;;;;;0.82;0.82;;;5.50;99.90;;;;;;4933624;29;20211;-74
2023/12/27 15:51:21;;;;;;;1.05;1.05;;;5.50;99.90;;;;;;4936996;29;20235;-74
2023/12/27 15:53:48;;;;;;;2.60;0.90;;;5.50;99.90;;;;;;4937175;29;20240;-73
2023/12/27 15:56:21;;;;;;;0.60;0.60;;;5.50;99.90;;;;;;4935629;29;20213;-73
2023/12/27 15:58:48;;;;;;;1.95;1.20;;;5.50;99.90;;;;;;4936225;29;20209;-73
2023/12/27 16:01:19;;;;;;;0.82;0.82;;;5.50;99.90;;;;;;4933955;29;20302;-73
2023/12/27 16:03:46;;;;;;;1.67;1.45;;;5.50;99.90;;;;;;4931472;29;20239;-74
2023/12/27 16:06:13;;;;;;;0.90;0.90;;;5.50;99.90;;;;;;4933106;29;20236;-73
2023/12/27 16:08:43;;;;;;;0.70;0.70;;;5.50;99.90;;;;;;4937107;29;20570;-73
2023/12/27 16:11:10;;;;;;;0.80;0.77;;;5.50;99.90;;;;;;4934446;29;20228;-74
2023/12/27 16:13:36;;;;;;;1.40;0.68;;;5.50;99.90;;;;;;4936298;29;20566;-73
2023/12/27 16:16:05;;;;;;;1.77;0.93;;;5.50;99.90;;;;;;4932312;29;20308;-74
2023/12/27 16:18:33;;;;;;;2.30;1.25;;;5.50;99.90;;;;;;4929577;29;20212;-74
2023/12/27 16:21:00;;;;;;;5.32;0.65;;;5.50;99.90;;;;;;4933206;29;20228;-74
2023/12/27 16:23:28;;;;;;;0.63;0.63;;;5.50;99.90;;;;;;4936933;29;20210;-74
2023/12/27 16:25:54;;;;;;;1.00;1.00;;;5.40;99.90;;;;;;4934356;29;20600;-74
2023/12/27 16:28:21;;;;;;;8.48;3.83;;;5.40;99.90;;;;;;4931174;29;20218;-74
2023/12/27 16:30:49;;;;;;;1.55;0.50;;;5.30;99.90;;;;;;4928228;29;20232;-74
2023/12/27 16:33:16;;;;;;;1.40;1.30;;;5.30;99.90;;;;;;4928468;29;20224;-74
2023/12/27 16:35:45;;;;;;;1.15;0.90;;;5.30;99.90;;;;;;4926674;29;20220;-74
2023/12/27 16:38:12;;;;;;;0.95;0.95;;;5.20;99.90;;;;;;4926488;29;20326;-74
2023/12/27 16:40:40;;;;;;;2.85;0.90;;;5.20;99.90;;;;;;4924943;29;20226;-74
2023/12/27 16:43:07;;;;;;;0.50;0.40;;;5.20;99.90;;;;;;4929897;29;20220;-73
2023/12/27 16:45:33;;;;;;;3.60;1.27;;;5.20;99.90;;;;;;4932314;29;20233;-72
2023/12/27 16:48:00;;;;;;;2.97;1.88;;;5.20;99.90;;;;;;4928000;29;20212;-74
2023/12/27 16:50:27;;;;;;;8.57;1.70;;;5.20;99.90;;;;;;4924781;29;20212;-73
2023/12/27 16:52:56;;;;;;;1.73;1.38;;;5.20;99.90;;;;;;4932453;29;20244;-73
2023/12/27 16:55:23;;;;;;;1.92;0.73;;;5.20;99.90;;;;;;4934379;29;20208;-72
2023/12/27 16:57:50;;;;;;;1.10;1.10;;;5.20;99.90;;;;;;4927978;29;20207;-73
2023/12/27 17:00:17;;;;;;;2.80;0.75;;;5.20;99.90;;;;;;4931727;29;20530;-73
2023/12/27 17:02:45;;;;;;;3.15;1.88;;;5.20;99.90;;;;;;4934923;29;20704;-73
2023/12/27 17:05:12;;;;;;;4.72;2.35;;;5.30;99.90;;;;;;4935958;29;20238;-72
2023/12/27 17:07:39;;;;;;;1.80;1.70;;;5.30;99.90;;;;;;4931216;29;20279;-72
2023/12/27 17:10:09;;;;;;;1.73;1.05;;;5.30;99.90;;;;;;4933359;29;20220;-71
2023/12/27 17:12:37;;;;;;;1.15;1.05;;;5.30;99.90;;;;;;4934913;29;20322;-72
2023/12/27 17:15:04;;;;;;;2.10;2.00;;;5.30;99.90;;;;;;4934642;29;20213;-72
2023/12/27 17:17:31;;;;;;;1.33;1.33;;;5.30;99.90;;;;;;4934140;29;20220;-72
2023/12/27 17:19:59;;;;;;;5.57;1.63;;;5.30;99.90;;;;;;4932629;29;20671;-72
2023/12/27 17:22:26;;;;;;;1.85;1.77;;;5.40;99.90;;;;;;4929578;29;20330;-73
2023/12/27 17:24:53;;;;;;;1.95;0.85;;;5.40;99.90;;;;;;4928825;29;20233;-73
2023/12/27 17:27:21;;;;;;;2.42;2.28;;;5.40;99.90;;;;;;4927598;29;20376;-73
2023/12/27 17:29:50;;;;;;;1.63;1.52;;;5.30;99.90;;;;;;4926110;29;20330;-73
2023/12/27 17:32:17;;;;;;;4.35;2.10;;;5.30;99.90;;;;;;4926145;29;20235;-73
2023/12/27 17:34:43;;;;;;;14.15;1.73;;;5.30;99.90;;;;;;4927232;29;20223;-72
2023/12/27 17:37:10;;;;;;;2.70;1.52;;;5.30;99.90;;;;;;4927464;29;20212;-72
2023/12/27 17:39:37;;;;;;;1.40;1.40;;;5.30;99.90;;;;;;4925091;29;20224;-73
2023/12/27 17:42:04;;;;;;;1.40;1.30;;;5.30;99.90;;;;;;4925476;29;20233;-73
2023/12/27 17:44:32;;;;;;;1.88;1.67;;;5.30;99.90;;;;;;4925714;29;20233;-72
2023/12/27 17:46:59;;;;;;;1.40;1.30;;;5.30;99.90;;;;;;4927326;29;20213;-73
2023/12/27 17:49:25;;;;;;;3.10;1.55;;;5.30;99.90;;;;;;4926657;29;20216;-72
2023/12/27 17:51:52;;;;;;;7.00;1.98;;;5.30;99.90;;;;;;4924819;29;20722;-72
2023/12/27 17:54:19;;;;;;;1.42;1.25;;;5.30;99.90;;;;;;4920384;29;20213;-73
2023/12/27 17:56:47;;;;;;;4.22;1.95;;;5.30;99.90;;;;;;4925646;29;20211;-72